createdAt,value
2022-11-18T00:01:06.105Z,22.73
2022-11-18T00:03:32.647Z,22.30
2022-11-18T00:05:59.125Z,21.58
2022-11-18T00:08:25.946Z,24.83
2022-11-18T00:10:52.842Z,21.42
2022-11-18T00:13:37.896Z,22.30
2022-11-18T00:16:10.533Z,21.98
2022-11-18T00:18:37.221Z,17.00
2022-11-18T00:21:08.090Z,19.92
2022-11-18T00:23:34.859Z,17.60
2022-11-18T00:26:02.814Z,17.17
2022-11-18T00:28:29.932Z,18.63
2022-11-18T00:31:01.662Z,17.60
2022-11-18T00:33:28.132Z,17.38
2022-11-18T00:35:55.258Z,17.17
2022-11-18T00:38:21.736Z,16.25
2022-11-18T00:40:48.186Z,17.95
2022-11-18T00:43:14.658Z,15.80
2022-11-18T00:45:42.894Z,15.27
2022-11-18T00:48:09.354Z,16.40
2022-11-18T00:50:35.808Z,16.48
2022-11-18T00:53:02.251Z,14.05
2022-11-18T00:55:28.708Z,15.48
2022-11-18T00:57:55.164Z,17.35
2022-11-18T01:00:21.649Z,15.27
2022-11-18T01:02:48.107Z,13.27
2022-11-18T01:05:14.792Z,16.02
2022-11-18T01:07:41.291Z,16.08
2022-11-18T01:10:08.039Z,16.27
2022-11-18T01:12:54.548Z,15.55
2022-11-18T01:15:21.184Z,15.40
2022-11-18T01:17:47.642Z,15.10
2022-11-18T01:20:15.560Z,14.90
2022-11-18T01:22:42.013Z,13.18
2022-11-18T01:25:08.756Z,14.65
2022-11-18T01:27:35.218Z,13.52
2022-11-18T01:30:01.894Z,14.50
2022-11-18T01:32:28.832Z,13.00
2022-11-18T01:34:55.313Z,12.13
2022-11-18T01:37:21.762Z,13.20
2022-11-18T01:39:48.330Z,13.80
2022-11-18T01:42:16.132Z,11.73
2022-11-18T01:44:59.592Z,9.52
2022-11-18T01:47:28.651Z,10.88
2022-11-18T01:49:55.319Z,11.32
2022-11-18T01:52:22.403Z,10.38
2022-11-18T01:54:52.314Z,10.85
2022-11-18T01:57:22.337Z,10.32
2022-11-18T01:59:50.584Z,11.00
2022-11-18T02:02:17.206Z,9.68
2022-11-18T02:04:48.833Z,9.32
2022-11-18T02:07:15.799Z,7.53
2022-11-18T02:09:42.315Z,9.68
2022-11-18T02:12:08.969Z,9.43
2022-11-18T02:14:39.582Z,8.82
2022-11-18T02:17:15.163Z,8.85
2022-11-18T02:19:47.625Z,9.40
2022-11-18T02:22:23.001Z,8.23
2022-11-18T02:24:59.606Z,8.20
2022-11-18T02:27:47.543Z,7.40
2022-11-18T02:30:16.052Z,6.38
2022-11-18T02:33:04.330Z,6.75
2022-11-18T02:35:36.698Z,7.72
2022-11-18T02:38:12.659Z,6.95
2022-11-18T02:41:01.980Z,7.32
2022-11-18T02:43:31.698Z,7.30
2022-11-18T02:46:01.630Z,8.07
2022-11-18T02:48:30.881Z,7.10
2022-11-18T02:50:58.376Z,7.60
2022-11-18T02:53:26.065Z,7.57
2022-11-18T02:55:52.726Z,7.43
2022-11-18T02:58:20.632Z,7.55
2022-11-18T03:00:54.268Z,6.45
2022-11-18T03:03:33.649Z,6.50
2022-11-18T03:06:29.550Z,6.97
2022-11-18T03:09:19.015Z,7.50
2022-11-18T03:12:07.452Z,6.63
2022-11-18T03:14:47.072Z,6.40
2022-11-18T03:17:23.860Z,7.57
2022-11-18T03:20:08.650Z,6.10
2022-11-18T03:22:56.448Z,5.13
2022-11-18T03:25:54.482Z,6.68
2022-11-18T03:28:39.102Z,6.78
2022-11-18T03:31:10.509Z,6.22
2022-11-18T03:33:43.469Z,5.75
2022-11-18T03:36:12.603Z,7.22
2022-11-18T03:38:44.289Z,6.15
2022-11-18T03:41:11.886Z,5.78
2022-11-18T03:43:43.697Z,6.22
2022-11-18T03:46:23.121Z,6.63
2022-11-18T03:48:56.867Z,6.82
2022-11-18T03:51:35.776Z,6.78
2022-11-18T03:54:08.691Z,6.55
2022-11-18T03:56:39.198Z,7.65
2022-11-18T03:59:11.987Z,6.70
2022-11-18T04:02:11.332Z,7.40
2022-11-18T04:04:38.022Z,7.53
2022-11-18T04:07:11.629Z,5.70
2022-11-18T04:09:42.997Z,7.10
2022-11-18T04:12:13.077Z,6.80
2022-11-18T04:14:42.127Z,5.88
2022-11-18T04:17:14.646Z,7.13
2022-11-18T04:19:41.198Z,6.60
2022-11-18T04:22:08.352Z,6.97
2022-11-18T04:24:34.961Z,7.20
2022-11-18T04:27:02.611Z,6.32
2022-11-18T04:29:30.162Z,7.20
2022-11-18T04:31:56.598Z,6.55
2022-11-18T04:34:23.108Z,6.85
2022-11-18T04:36:49.542Z,5.82
2022-11-18T04:39:18.253Z,5.88
2022-11-18T04:41:57.458Z,6.30
2022-11-18T04:44:31.997Z,5.60
2022-11-18T04:47:03.741Z,6.22
2022-11-18T04:49:30.188Z,6.15
2022-11-18T04:51:56.811Z,5.45
2022-11-18T04:54:23.693Z,6.72
2022-11-18T04:56:50.248Z,6.63
2022-11-18T04:59:21.890Z,6.13
2022-11-18T05:01:49.438Z,5.85
2022-11-18T05:04:18.933Z,5.68
2022-11-18T05:06:45.404Z,5.70
2022-11-18T05:09:12.093Z,5.10
2022-11-18T05:11:57.795Z,5.03
2022-11-18T05:14:28.754Z,5.28
2022-11-18T05:16:56.231Z,4.85
2022-11-18T05:19:23.145Z,5.78
2022-11-18T05:21:49.645Z,4.93
2022-11-18T05:24:16.136Z,3.95
2022-11-18T05:26:42.789Z,4.47
2022-11-18T05:29:09.363Z,4.20
2022-11-18T05:31:35.805Z,4.25
2022-11-18T05:34:02.374Z,3.40
2022-11-18T05:36:28.946Z,3.42
2022-11-18T05:38:58.740Z,4.00
2022-11-18T05:41:43.696Z,3.90
2022-11-18T05:44:10.206Z,3.67
2022-11-18T05:46:36.706Z,4.15
2022-11-18T05:49:03.219Z,3.60
2022-11-18T05:51:29.653Z,3.50
2022-11-18T05:53:56.145Z,3.67
2022-11-18T05:56:28.941Z,3.90
2022-11-18T05:58:55.722Z,3.67
2022-11-18T06:01:35.693Z,3.03
2022-11-18T06:04:02.828Z,3.55
2022-11-18T06:06:29.287Z,3.75
2022-11-18T06:09:16.941Z,3.70
2022-11-18T06:11:45.636Z,4.15
2022-11-18T06:14:23.715Z,3.90
2022-11-18T06:16:53.813Z,3.58
2022-11-18T06:19:20.542Z,3.67
2022-11-18T06:21:47.229Z,4.10
2022-11-18T06:24:14.179Z,4.00
2022-11-18T06:26:40.764Z,4.18
2022-11-18T06:29:08.337Z,4.10
2022-11-18T06:31:35.019Z,4.18
2022-11-18T06:34:01.538Z,4.40
2022-11-18T06:36:27.998Z,4.07
2022-11-18T06:38:54.488Z,5.10
2022-11-18T06:41:20.942Z,4.30
2022-11-18T06:43:47.573Z,4.63
2022-11-18T06:46:34.600Z,5.10
2022-11-18T06:49:01.799Z,5.22
2022-11-18T06:51:28.798Z,4.50
2022-11-18T06:53:55.237Z,4.85
2022-11-18T06:56:22.837Z,5.78
2022-11-18T06:58:53.665Z,5.38
2022-11-18T07:01:22.600Z,6.18
2022-11-18T07:03:49.405Z,5.75
2022-11-18T07:06:18.898Z,5.70
2022-11-18T07:08:45.409Z,5.20
2022-11-18T07:11:13.942Z,5.60
2022-11-18T07:13:43.595Z,5.00
2022-11-18T07:16:15.716Z,5.45
2022-11-18T07:18:43.766Z,5.82
2022-11-18T07:21:15.605Z,5.03
2022-11-18T07:23:42.457Z,6.63
2022-11-18T07:26:09.315Z,5.25
2022-11-18T07:28:35.983Z,5.60
2022-11-18T07:31:07.863Z,6.13
2022-11-18T07:33:34.893Z,5.32
2022-11-18T07:36:02.753Z,5.57
2022-11-18T07:38:29.489Z,6.30
2022-11-18T07:41:02.515Z,4.93
2022-11-18T07:43:28.960Z,4.43
2022-11-18T07:45:55.463Z,4.35
2022-11-18T07:48:22.020Z,4.43
2022-11-18T07:50:48.481Z,4.55
2022-11-18T07:53:14.965Z,3.92
2022-11-18T07:55:41.424Z,3.85
2022-11-18T07:58:07.937Z,4.50
2022-11-18T08:00:34.390Z,5.22
2022-11-18T08:03:00.856Z,4.68
2022-11-18T08:05:27.432Z,3.90
2022-11-18T08:07:53.968Z,4.50
2022-11-18T08:10:20.418Z,4.72
2022-11-18T08:12:46.868Z,4.57
2022-11-18T08:15:13.341Z,4.63
2022-11-18T08:17:39.798Z,5.03
2022-11-18T08:20:06.619Z,5.65
2022-11-18T08:22:33.083Z,5.32
2022-11-18T08:24:59.531Z,5.18
2022-11-18T08:27:26.011Z,5.13
2022-11-18T08:29:52.457Z,5.68
2022-11-18T08:32:18.940Z,5.32
2022-11-18T08:34:45.411Z,5.50
2022-11-18T08:37:11.865Z,4.88
2022-11-18T08:39:38.311Z,5.47
2022-11-18T08:42:04.818Z,4.97
2022-11-18T08:44:34.391Z,5.50
2022-11-18T08:47:00.963Z,4.57
2022-11-18T08:49:32.191Z,4.75
2022-11-18T08:51:59.046Z,3.95
2022-11-18T08:54:25.561Z,4.95
2022-11-18T08:56:52.020Z,4.63
2022-11-18T08:59:18.797Z,4.65
2022-11-18T09:01:45.640Z,4.53
2022-11-18T09:04:12.190Z,4.30
2022-11-18T09:06:40.138Z,4.80
2022-11-18T09:09:07.593Z,3.70
2022-11-18T09:11:34.425Z,4.22
2022-11-18T09:16:47.944Z,4.18
2022-11-18T09:19:46.662Z,3.67
2022-11-18T09:22:01.909Z,3.88
2022-11-18T09:24:28.363Z,4.40
2022-11-18T09:26:54.922Z,4.93
2022-11-18T09:29:25.305Z,3.88
2022-11-18T09:31:52.862Z,4.07
2022-11-18T09:34:19.836Z,3.17
2022-11-18T09:36:46.478Z,4.45
2022-11-18T09:39:12.937Z,4.40
2022-11-18T09:41:41.939Z,4.00
2022-11-18T09:44:40.377Z,3.50
2022-11-18T09:47:15.798Z,3.50
2022-11-18T09:49:43.773Z,3.88
2022-11-18T09:52:20.602Z,3.70
2022-11-18T09:54:47.235Z,3.10
2022-11-18T09:57:16.395Z,3.47
2022-11-18T09:59:43.506Z,3.08
2022-11-18T10:02:37.529Z,2.10
2022-11-18T10:07:52.841Z,2.50
2022-11-18T10:10:24.792Z,2.25
2022-11-18T10:12:59.303Z,2.42
2022-11-18T10:15:43.869Z,2.35
2022-11-18T10:18:52.809Z,2.70
2022-11-18T10:21:33.645Z,2.60
2022-11-18T10:24:04.716Z,2.72
2022-11-18T10:26:41.097Z,1.75
2022-11-18T10:29:09.998Z,2.00
2022-11-18T10:32:04.148Z,1.75
2022-11-18T10:34:31.919Z,1.70
2022-11-18T10:37:02.802Z,2.00
2022-11-18T10:39:29.550Z,1.83
2022-11-18T10:42:01.051Z,1.60
2022-11-18T10:44:41.678Z,1.88
2022-11-18T10:47:24.063Z,1.95
2022-11-18T10:49:51.857Z,1.73
2022-11-18T10:52:18.357Z,2.30
2022-11-18T10:54:45.437Z,1.90
2022-11-18T10:57:14.812Z,1.92
2022-11-18T10:59:44.294Z,1.80
2022-11-18T11:02:19.376Z,1.67
2022-11-18T11:04:47.363Z,1.60
2022-11-18T11:07:25.410Z,1.42
2022-11-18T11:10:02.266Z,1.92
2022-11-18T11:12:37.248Z,1.50
2022-11-18T11:15:11.511Z,1.40
2022-11-18T11:17:43.018Z,1.50
2022-11-18T11:20:20.405Z,1.20
2022-11-18T11:22:46.851Z,1.42
2022-11-18T11:25:24.150Z,1.25
2022-11-18T11:28:30.397Z,1.70
2022-11-18T11:31:22.480Z,1.35
2022-11-18T11:33:53.843Z,1.77
2022-11-18T11:36:31.817Z,1.60
2022-11-18T11:39:23.016Z,1.55
2022-11-18T11:41:59.777Z,1.40
2022-11-18T11:44:32.175Z,1.50
2022-11-18T11:47:36.358Z,1.25
2022-11-18T11:50:09.451Z,1.50
2022-11-18T11:52:48.961Z,1.60
2022-11-18T11:55:21.425Z,1.48
2022-11-18T11:58:05.769Z,1.13
2022-11-18T12:00:38.738Z,1.50
2022-11-18T12:03:51.719Z,1.50
2022-11-18T12:06:18.560Z,1.50
2022-11-18T12:08:53.257Z,1.60
2022-11-18T12:11:31.611Z,1.35
2022-11-18T12:14:03.482Z,1.58
2022-11-18T12:16:43.882Z,1.40
2022-11-18T12:19:16.235Z,1.50
2022-11-18T12:21:45.947Z,1.77
2022-11-18T12:24:33.032Z,1.70
2022-11-18T12:27:02.597Z,1.67
2022-11-18T12:29:50.162Z,1.75
2022-11-18T12:32:46.631Z,1.75
2022-11-18T12:35:13.111Z,1.77
2022-11-18T12:37:42.412Z,1.80
2022-11-18T12:40:09.290Z,1.55
2022-11-18T12:43:21.708Z,1.40
2022-11-18T12:45:52.110Z,1.58
2022-11-18T12:48:39.663Z,1.77
2022-11-18T12:51:15.112Z,1.80
2022-11-18T12:53:42.745Z,1.40
2022-11-18T12:56:18.298Z,1.80
2022-11-18T12:58:53.201Z,1.35
2022-11-18T13:01:22.501Z,1.45
2022-11-18T13:03:50.658Z,1.50
2022-11-18T13:06:24.374Z,1.90
2022-11-18T13:09:00.288Z,1.48
2022-11-18T13:11:46.983Z,1.95
2022-11-18T13:15:00.074Z,1.80
2022-11-18T13:17:52.846Z,1.80
2022-11-18T13:20:27.204Z,1.30
2022-11-18T13:23:14.351Z,1.60
2022-11-18T13:25:42.508Z,1.70
2022-11-18T13:28:31.652Z,1.55
2022-11-18T13:31:28.095Z,1.60
2022-11-18T13:33:54.534Z,1.67
2022-11-18T13:36:25.534Z,1.58
2022-11-18T13:39:03.068Z,2.08
2022-11-18T13:41:33.967Z,1.92
2022-11-18T13:44:12.099Z,1.50
2022-11-18T13:46:39.725Z,1.63
2022-11-18T13:49:06.311Z,1.95
2022-11-18T13:51:32.884Z,1.42
2022-11-18T13:53:59.317Z,1.65
2022-11-18T13:56:34.477Z,1.60
2022-11-18T13:59:17.018Z,1.83
2022-11-18T14:01:45.479Z,1.60
2022-11-18T14:04:20.717Z,1.70
2022-11-18T14:06:47.446Z,1.92
2022-11-18T14:09:30.356Z,1.75
2022-11-18T14:12:13.121Z,1.27
2022-11-18T14:14:41.234Z,1.75
2022-11-18T14:17:16.365Z,1.75
2022-11-18T14:19:43.014Z,2.47
2022-11-18T14:22:18.968Z,2.10
2022-11-18T14:24:57.590Z,1.63
2022-11-18T14:27:38.725Z,1.38
2022-11-18T14:30:24.052Z,1.65
2022-11-18T14:33:05.660Z,1.70
2022-11-18T14:35:34.742Z,1.90
2022-11-18T14:38:35.260Z,1.70
2022-11-18T14:40:58.468Z,1.85
2022-11-18T14:43:24.905Z,1.88
2022-11-18T14:45:53.543Z,1.50
2022-11-18T14:48:22.266Z,1.90
2022-11-18T14:51:10.967Z,2.00
2022-11-18T14:53:37.419Z,2.10
2022-11-18T14:56:04.375Z,2.40
2022-11-18T14:58:30.830Z,2.00
2022-11-18T15:00:57.402Z,1.75
2022-11-18T15:03:24.938Z,2.15
2022-11-18T15:05:51.493Z,2.65
2022-11-18T15:08:18.006Z,2.00
2022-11-18T15:10:44.478Z,1.77
2022-11-18T15:13:11.036Z,2.03
2022-11-18T15:15:37.528Z,2.17
2022-11-18T15:18:03.988Z,2.00
2022-11-18T15:20:30.483Z,1.88
2022-11-18T15:22:57.053Z,1.60
2022-11-18T15:25:23.512Z,1.70
2022-11-18T15:27:50.024Z,2.05
2022-11-18T15:30:16.509Z,1.73
2022-11-18T15:32:43.488Z,1.90
2022-11-18T15:35:12.312Z,1.98
2022-11-18T15:37:39.228Z,2.03
2022-11-18T15:40:05.957Z,2.22
2022-11-18T15:42:33.371Z,1.85
2022-11-18T15:45:02.936Z,2.17
2022-11-18T15:47:29.505Z,2.00
2022-11-18T15:49:55.967Z,2.47
2022-11-18T15:52:22.461Z,2.20
2022-11-18T15:54:48.913Z,1.90
2022-11-18T15:57:15.357Z,1.92
2022-11-18T15:59:41.802Z,2.20
2022-11-18T16:02:09.721Z,2.40
2022-11-18T16:04:36.169Z,2.17
2022-11-18T16:07:03.071Z,2.50
2022-11-18T16:09:50.092Z,2.40
2022-11-18T16:12:35.704Z,1.88
2022-11-18T16:15:20.670Z,1.70
2022-11-18T16:17:47.134Z,2.17
2022-11-18T16:20:13.661Z,1.90
2022-11-18T16:22:40.120Z,1.92
2022-11-18T16:25:06.736Z,2.20
2022-11-18T16:27:35.092Z,2.20
2022-11-18T16:30:04.058Z,2.38
2022-11-18T16:32:30.873Z,2.25
2022-11-18T16:35:01.387Z,2.03
2022-11-18T16:37:28.200Z,2.58
2022-11-18T16:39:54.668Z,2.35
2022-11-18T16:42:21.288Z,2.20
2022-11-18T16:44:47.758Z,2.38
2022-11-18T16:47:15.344Z,2.40
2022-11-18T16:49:42.337Z,2.38
2022-11-18T16:52:09.176Z,2.17
2022-11-18T16:54:39.550Z,2.55
2022-11-18T16:57:09.582Z,2.90
2022-11-18T16:59:36.022Z,2.80
2022-11-18T17:02:03.079Z,3.03
2022-11-18T17:04:30.127Z,2.30
2022-11-18T17:06:59.636Z,2.70
2022-11-18T17:09:26.468Z,2.35
2022-11-18T17:11:54.152Z,2.88
2022-11-18T17:14:21.825Z,3.47
2022-11-18T17:16:49.006Z,2.25
2022-11-18T17:19:17.401Z,1.90
2022-11-18T17:21:44.460Z,2.30
2022-11-18T17:24:12.795Z,2.10
2022-11-18T17:26:39.537Z,2.50
2022-11-18T17:29:06.011Z,2.88
2022-11-18T17:31:33.224Z,3.40
2022-11-18T17:33:59.762Z,3.28
2022-11-18T17:36:27.129Z,2.97
2022-11-18T17:38:55.905Z,2.88
2022-11-18T17:41:42.913Z,2.83
2022-11-18T17:44:10.757Z,2.83
2022-11-18T17:46:38.443Z,2.80
2022-11-18T17:49:10.093Z,2.60
2022-11-18T17:51:36.535Z,2.17
2022-11-18T17:54:02.981Z,2.70
2022-11-18T17:56:29.418Z,2.47
2022-11-18T17:58:55.873Z,2.45
2022-11-18T18:01:22.802Z,2.45
2022-11-18T18:03:49.566Z,2.17
2022-11-18T18:06:16.219Z,2.13
2022-11-18T18:08:42.811Z,2.33
2022-11-18T18:11:15.069Z,2.45
2022-11-18T18:14:00.610Z,2.95
2022-11-18T18:16:28.275Z,2.40
2022-11-18T18:18:54.744Z,2.17
2022-11-18T18:21:21.226Z,2.95
2022-11-18T18:23:47.765Z,2.65
2022-11-18T18:26:14.628Z,2.97
2022-11-18T18:28:41.104Z,3.15
2022-11-18T18:31:09.978Z,3.30
2022-11-18T18:33:36.888Z,3.90
2022-11-18T18:36:05.325Z,3.03
2022-11-18T18:38:33.250Z,3.47
2022-11-18T18:41:04.175Z,3.13
2022-11-18T18:43:30.630Z,3.65
2022-11-18T18:46:28.374Z,3.65
2022-11-18T18:49:09.109Z,3.33
2022-11-18T18:51:43.619Z,3.17
2022-11-18T18:54:11.526Z,3.38
2022-11-18T18:56:40.775Z,3.00
2022-11-18T18:59:08.157Z,3.20
2022-11-18T19:01:35.239Z,2.83
2022-11-18T19:04:05.351Z,2.63
2022-11-18T19:06:51.990Z,2.53
2022-11-18T19:09:21.210Z,2.20
2022-11-18T19:12:06.240Z,1.70
2022-11-18T19:14:34.531Z,1.95
2022-11-18T19:17:06.412Z,1.60
2022-11-18T19:19:54.952Z,1.20
2022-11-18T19:22:21.397Z,1.30
2022-11-18T19:24:50.602Z,1.13
2022-11-18T19:27:18.192Z,2.50
2022-11-18T19:29:44.726Z,1.20
2022-11-18T19:32:11.251Z,0.90
2022-11-18T19:34:38.641Z,1.30
2022-11-18T19:37:05.119Z,0.95
2022-11-18T19:39:31.597Z,1.27
2022-11-18T19:41:58.696Z,1.00
2022-11-18T19:44:25.172Z,1.23
2022-11-18T19:46:52.624Z,1.13
2022-11-18T19:49:19.202Z,1.13
2022-11-18T19:51:45.894Z,0.98
2022-11-18T19:54:12.418Z,1.40
2022-11-18T19:56:38.869Z,1.33
2022-11-18T19:59:05.337Z,1.08
2022-11-18T20:01:31.912Z,1.48
2022-11-18T20:04:05.551Z,1.10
2022-11-18T20:08:58.355Z,1.30
2022-11-18T20:11:24.950Z,1.20
2022-11-18T20:13:51.740Z,0.90
2022-11-18T20:16:23.412Z,1.00
2022-11-18T20:18:54.920Z,1.00
2022-11-18T20:21:22.153Z,0.90
2022-11-18T20:24:01.992Z,1.00
2022-11-18T20:26:31.222Z,1.23
2022-11-18T20:28:58.051Z,1.20
2022-11-18T20:31:25.289Z,1.40
2022-11-18T20:33:53.333Z,1.15
2022-11-18T20:36:22.046Z,1.30
2022-11-18T20:38:50.459Z,0.93
2022-11-18T20:41:17.335Z,1.40
2022-11-18T20:43:44.178Z,1.20
2022-11-18T20:46:14.702Z,1.40
2022-11-18T20:48:45.386Z,1.60
2022-11-18T20:51:14.898Z,1.40
2022-11-18T20:53:42.693Z,1.00
2022-11-18T20:56:10.135Z,1.00
2022-11-18T20:58:36.662Z,1.30
2022-11-18T21:01:26.151Z,1.00
2022-11-18T21:03:55.003Z,1.20
2022-11-18T21:06:23.451Z,1.20
2022-11-18T21:08:54.834Z,1.35
2022-11-18T21:11:21.304Z,1.13
2022-11-18T21:14:06.474Z,0.90
2022-11-18T21:16:32.947Z,1.00
2022-11-18T21:18:59.428Z,1.63
2022-11-18T21:21:44.296Z,0.90
2022-11-18T21:24:15.722Z,1.08
2022-11-18T21:26:42.516Z,1.10
2022-11-18T21:29:10.416Z,1.00
2022-11-18T21:31:36.903Z,0.80
2022-11-18T21:36:30.738Z,1.00
2022-11-18T21:38:58.576Z,0.90
2022-11-18T21:41:25.976Z,0.93
2022-11-18T21:44:07.705Z,0.73
2022-11-18T21:46:35.063Z,1.10
2022-11-18T21:49:02.267Z,0.90
2022-11-18T21:51:31.144Z,1.20
2022-11-18T21:53:57.771Z,0.80
2022-11-18T21:56:25.209Z,0.95
2022-11-18T21:58:52.330Z,0.80
2022-11-18T22:01:21.369Z,0.90
2022-11-18T22:03:55.013Z,0.80
2022-11-18T22:06:23.207Z,0.77
2022-11-18T22:08:50.363Z,0.88
2022-11-18T22:11:17.145Z,0.80
2022-11-18T22:13:43.808Z,0.80
2022-11-18T22:16:12.800Z,1.00
2022-11-18T22:18:44.188Z,0.80
2022-11-18T22:21:19.549Z,0.90
2022-11-18T22:23:46.254Z,1.10
2022-11-18T22:26:18.085Z,1.10
2022-11-18T22:28:45.321Z,1.20
2022-11-18T22:31:18.245Z,1.20
2022-11-18T22:33:44.695Z,1.10
2022-11-18T22:36:14.102Z,1.10
2022-11-18T22:38:41.439Z,1.10
2022-11-18T22:41:30.674Z,1.10
2022-11-18T22:43:59.464Z,1.10
2022-11-18T22:46:29.142Z,1.00
2022-11-18T22:48:56.576Z,1.13
2022-11-18T22:51:23.043Z,1.10
2022-11-18T22:53:49.627Z,1.20
2022-11-18T22:56:16.252Z,1.00
2022-11-18T22:58:42.944Z,1.10
2022-11-18T23:01:12.158Z,1.10
2022-11-18T23:03:38.688Z,1.10
2022-11-18T23:06:05.653Z,1.30
2022-11-18T23:08:34.234Z,1.08
2022-11-18T23:11:02.545Z,1.50
2022-11-18T23:13:47.564Z,1.40
2022-11-18T23:16:14.018Z,1.40
2022-11-18T23:18:40.466Z,1.40
2022-11-18T23:21:07.241Z,1.30
2022-11-18T23:23:33.788Z,1.30
2022-11-18T23:26:05.379Z,1.20
2022-11-18T23:28:31.968Z,1.40
2022-11-18T23:31:15.883Z,1.40
2022-11-18T23:33:43.109Z,1.30
2022-11-18T23:36:11.737Z,1.60
2022-11-18T23:38:38.430Z,1.38
2022-11-18T23:41:09.812Z,1.77
2022-11-18T23:43:36.586Z,1.42
2022-11-18T23:46:03.621Z,1.50
2022-11-18T23:48:35.768Z,1.95
2022-11-18T23:51:07.229Z,2.20
2022-11-18T23:53:34.328Z,1.95
2022-11-18T23:56:02.680Z,1.58
2022-11-18T23:58:29.237Z,1.75
